sensor_id;sensor_type;location;lat;lon;timestamp;pressure;altitude;pressure_sealevel;temperature;humidity
46710;BME280;32442;51.514;-0.178;2023-02-13T00:00:15;103350.22;;;20.15;40.45
46710;BME280;32442;51.514;-0.178;2023-02-13T00:02:42;103343.41;;;20.11;40.49
46710;BME280;32442;51.514;-0.178;2023-02-13T00:05:09;103340.59;;;20.11;40.57
46710;BME280;32442;51.514;-0.178;2023-02-13T00:07:36;103345.97;;;20.12;40.17
46710;BME280;32442;51.514;-0.178;2023-02-13T00:10:04;103336.69;;;20.12;40.50
46710;BME280;32442;51.514;-0.178;2023-02-13T00:12:31;103338.00;;;20.09;40.64
46710;BME280;32442;51.514;-0.178;2023-02-13T00:14:58;103344.50;;;20.10;40.32
46710;BME280;32442;51.514;-0.178;2023-02-13T00:17:25;103336.06;;;20.10;40.36
46710;BME280;32442;51.514;-0.178;2023-02-13T00:19:52;103336.31;;;20.08;40.25
46710;BME280;32442;51.514;-0.178;2023-02-13T00:22:19;103326.44;;;20.06;40.49
46710;BME280;32442;51.514;-0.178;2023-02-13T00:24:49;103324.72;;;20.05;40.38
46710;BME280;32442;51.514;-0.178;2023-02-13T00:27:17;103330.09;;;20.06;40.82
46710;BME280;32442;51.514;-0.178;2023-02-13T00:29:43;103323.00;;;20.04;40.83
46710;BME280;32442;51.514;-0.178;2023-02-13T00:32:11;103330.34;;;20.05;40.89
46710;BME280;32442;51.514;-0.178;2023-02-13T00:34:38;103325.22;;;20.02;40.60
46710;BME280;32442;51.514;-0.178;2023-02-13T00:37:05;103319.25;;;19.98;41.00
46710;BME280;32442;51.514;-0.178;2023-02-13T00:39:32;103319.25;;;19.98;41.10
46710;BME280;32442;51.514;-0.178;2023-02-13T00:41:58;103321.22;;;19.97;40.71
46710;BME280;32442;51.514;-0.178;2023-02-13T00:44:26;103327.91;;;19.96;40.72
46710;BME280;32442;51.514;-0.178;2023-02-13T00:46:53;103322.06;;;19.98;40.65
46710;BME280;32442;51.514;-0.178;2023-02-13T00:49:20;103328.66;;;19.92;41.04
46710;BME280;32442;51.514;-0.178;2023-02-13T00:51:47;103323.66;;;19.94;41.03
46710;BME280;32442;51.514;-0.178;2023-02-13T00:54:14;103319.50;;;19.96;41.29
46710;BME280;32442;51.514;-0.178;2023-02-13T00:56:41;103316.59;;;19.91;40.98
46710;BME280;32442;51.514;-0.178;2023-02-13T00:59:08;103315.13;;;19.89;41.13
46710;BME280;32442;51.514;-0.178;2023-02-13T01:01:35;103320.97;;;19.87;41.58
46710;BME280;32442;51.514;-0.178;2023-02-13T01:04:02;103323.78;;;19.87;41.30
46710;BME280;32442;51.514;-0.178;2023-02-13T01:06:29;103321.22;;;19.86;41.60
46710;BME280;32442;51.514;-0.178;2023-02-13T01:08:56;103328.19;;;19.83;41.29
46710;BME280;32442;51.514;-0.178;2023-02-13T01:11:23;103323.66;;;19.82;41.28
46710;BME280;32442;51.514;-0.178;2023-02-13T01:13:50;103328.06;;;19.78;41.86
46710;BME280;32442;51.514;-0.178;2023-02-13T01:16:17;103318.28;;;19.81;41.61
46710;BME280;32442;51.514;-0.178;2023-02-13T01:18:44;103326.97;;;19.79;41.55
46710;BME280;32442;51.514;-0.178;2023-02-13T01:23:40;103329.78;;;19.79;41.67
46710;BME280;32442;51.514;-0.178;2023-02-13T01:26:08;103334.75;;;19.77;41.59
46710;BME280;32442;51.514;-0.178;2023-02-13T01:28:36;103317.34;;;19.75;41.77
46710;BME280;32442;51.514;-0.178;2023-02-13T01:31:03;103329.66;;;19.74;41.60
46710;BME280;32442;51.514;-0.178;2023-02-13T01:33:30;103327.34;;;19.71;42.02
46710;BME280;32442;51.514;-0.178;2023-02-13T01:35:57;103327.09;;;19.73;41.90
46710;BME280;32442;51.514;-0.178;2023-02-13T01:38:25;103324.06;;;19.74;41.63
46710;BME280;32442;51.514;-0.178;2023-02-13T01:40:53;103315.00;;;19.72;41.64
46710;BME280;32442;51.514;-0.178;2023-02-13T01:43:20;103317.59;;;19.74;42.01
46710;BME280;32442;51.514;-0.178;2023-02-13T01:45:49;103316.88;;;19.67;41.92
46710;BME280;32442;51.514;-0.178;2023-02-13T01:48:19;103314.06;;;19.67;42.18
46710;BME280;32442;51.514;-0.178;2023-02-13T01:50:47;103313.22;;;19.66;42.17
46710;BME280;32442;51.514;-0.178;2023-02-13T01:55:46;103314.81;;;19.62;42.00
46710;BME280;32442;51.514;-0.178;2023-02-13T01:58:16;103314.53;;;19.64;42.26
46710;BME280;32442;51.514;-0.178;2023-02-13T02:00:44;103312.59;;;19.64;41.86
46710;BME280;32442;51.514;-0.178;2023-02-13T02:03:17;103316.13;;;19.60;41.94
46710;BME280;32442;51.514;-0.178;2023-02-13T02:05:45;103317.47;;;19.57;42.44
46710;BME280;32442;51.514;-0.178;2023-02-13T02:08:12;103316.63;;;19.57;42.12
46710;BME280;32442;51.514;-0.178;2023-02-13T02:10:40;103306.72;;;19.54;42.16
46710;BME280;32442;51.514;-0.178;2023-02-13T02:13:09;103305.13;;;19.58;42.14
46710;BME280;32442;51.514;-0.178;2023-02-13T02:15:37;103302.59;;;19.57;42.41
46710;BME280;32442;51.514;-0.178;2023-02-13T02:35:33;103290.53;;;19.44;42.73
46710;BME280;32442;51.514;-0.178;2023-02-13T02:47:55;103291.84;;;19.42;42.31
46710;BME280;32442;51.514;-0.178;2023-02-13T02:55:27;103301.84;;;19.38;42.33
46710;BME280;32442;51.514;-0.178;2023-02-13T03:00:29;103291.94;;;19.35;42.67
46710;BME280;32442;51.514;-0.178;2023-02-13T03:03:02;103289.16;;;19.35;42.52
46710;BME280;32442;51.514;-0.178;2023-02-13T03:05:33;103299.75;;;19.33;42.62
46710;BME280;32442;51.514;-0.178;2023-02-13T03:08:05;103296.72;;;19.35;43.07
46710;BME280;32442;51.514;-0.178;2023-02-13T03:10:33;103284.41;;;19.36;42.92
46710;BME280;32442;51.514;-0.178;2023-02-13T03:13:05;103281.47;;;19.31;42.70
46710;BME280;32442;51.514;-0.178;2023-02-13T03:15:38;103280.63;;;19.30;42.70
46710;BME280;32442;51.514;-0.178;2023-02-13T03:18:25;103281.00;;;19.34;43.00
46710;BME280;32442;51.514;-0.178;2023-02-13T03:23:32;103279.28;;;19.33;42.60
46710;BME280;32442;51.514;-0.178;2023-02-13T03:28:35;103285.63;;;19.28;43.01
46710;BME280;32442;51.514;-0.178;2023-02-13T03:43:52;103264.44;;;19.21;42.99
46710;BME280;32442;51.514;-0.178;2023-02-13T03:46:21;103271.97;;;19.20;42.94
46710;BME280;32442;51.514;-0.178;2023-02-13T03:48:50;103260.75;;;19.20;42.95
46710;BME280;32442;51.514;-0.178;2023-02-13T03:53:51;103256.88;;;19.21;42.70
46710;BME280;32442;51.514;-0.178;2023-02-13T03:56:20;103262.72;;;19.20;43.14
46710;BME280;32442;51.514;-0.178;2023-02-13T03:58:51;103260.50;;;19.22;43.00
46710;BME280;32442;51.514;-0.178;2023-02-13T04:01:24;103257.47;;;19.23;42.64
46710;BME280;32442;51.514;-0.178;2023-02-13T04:06:24;103261.00;;;19.19;43.08
46710;BME280;32442;51.514;-0.178;2023-02-13T04:08:53;103253.69;;;19.18;43.04
46710;BME280;32442;51.514;-0.178;2023-02-13T04:13:51;103257.09;;;19.20;42.73
46710;BME280;32442;51.514;-0.178;2023-02-13T04:16:21;103262.59;;;19.15;43.18
46710;BME280;32442;51.514;-0.178;2023-02-13T04:18:53;103264.53;;;19.14;42.81
46710;BME280;32442;51.514;-0.178;2023-02-13T04:21:21;103264.28;;;19.16;42.91
46710;BME280;32442;51.514;-0.178;2023-02-13T04:23:49;103269.28;;;19.14;43.14
46710;BME280;32442;51.514;-0.178;2023-02-13T04:26:16;103263.94;;;19.12;43.16
46710;BME280;32442;51.514;-0.178;2023-02-13T04:28:44;103269.53;;;19.12;42.77
46710;BME280;32442;51.514;-0.178;2023-02-13T04:31:11;103258.56;;;19.10;42.93
46710;BME280;32442;51.514;-0.178;2023-02-13T04:33:38;103271.22;;;19.13;43.15
46710;BME280;32442;51.514;-0.178;2023-02-13T04:36:05;103262.44;;;19.09;43.41
46710;BME280;32442;51.514;-0.178;2023-02-13T04:38:32;103263.53;;;19.08;43.25
46710;BME280;32442;51.514;-0.178;2023-02-13T04:40:59;103261.84;;;19.07;43.12
46710;BME280;32442;51.514;-0.178;2023-02-13T04:43:25;103261.00;;;19.07;43.33
46710;BME280;32442;51.514;-0.178;2023-02-13T04:45:52;103262.09;;;19.06;43.15
46710;BME280;32442;51.514;-0.178;2023-02-13T04:48:19;103262.94;;;19.06;43.22
46710;BME280;32442;51.514;-0.178;2023-02-13T04:50:46;103262.31;;;19.04;43.41
46710;BME280;32442;51.514;-0.178;2023-02-13T04:53:13;103259.53;;;19.04;43.27
46710;BME280;32442;51.514;-0.178;2023-02-13T04:55:40;103261.47;;;19.04;43.10
46710;BME280;32442;51.514;-0.178;2023-02-13T04:58:07;103250.97;;;18.99;43.55
46710;BME280;32442;51.514;-0.178;2023-02-13T05:00:34;103258.31;;;19.00;43.17
46710;BME280;32442;51.514;-0.178;2023-02-13T05:05:31;103257.72;;;18.98;43.31
46710;BME280;32442;51.514;-0.178;2023-02-13T05:07:57;103253.19;;;18.97;43.16
46710;BME280;32442;51.514;-0.178;2023-02-13T05:10:24;103261.81;;;18.96;43.21
46710;BME280;32442;51.514;-0.178;2023-02-13T05:12:51;103263.53;;;18.97;43.10
46710;BME280;32442;51.514;-0.178;2023-02-13T05:15:18;103251.97;;;18.93;43.42
46710;BME280;32442;51.514;-0.178;2023-02-13T05:17:45;103256.47;;;18.94;43.49
46710;BME280;32442;51.514;-0.178;2023-02-13T05:20:12;103251.97;;;18.93;43.11
46710;BME280;32442;51.514;-0.178;2023-02-13T05:25:13;103239.78;;;18.99;43.05
46710;BME280;32442;51.514;-0.178;2023-02-13T05:27:40;103235.53;;;19.08;44.60
46710;BME280;32442;51.514;-0.178;2023-02-13T05:30:07;103234.44;;;19.09;43.82
46710;BME280;32442;51.514;-0.178;2023-02-13T05:32:34;103235.41;;;19.15;44.09
46710;BME280;32442;51.514;-0.178;2023-02-13T05:35:00;103238.56;;;19.19;44.25
46710;BME280;32442;51.514;-0.178;2023-02-13T05:37:30;103232.75;;;19.20;43.90
46710;BME280;32442;51.514;-0.178;2023-02-13T05:39:56;103236.53;;;19.26;44.03
46710;BME280;32442;51.514;-0.178;2023-02-13T05:42:23;103229.31;;;19.30;44.01
46710;BME280;32442;51.514;-0.178;2023-02-13T05:44:50;103233.34;;;19.34;44.10
46710;BME280;32442;51.514;-0.178;2023-02-13T05:47:17;103235.41;;;19.38;44.38
46710;BME280;32442;51.514;-0.178;2023-02-13T05:49:44;103231.88;;;19.43;44.54
46710;BME280;32442;51.514;-0.178;2023-02-13T05:52:11;103242.13;;;19.49;44.29
46710;BME280;32442;51.514;-0.178;2023-02-13T05:54:38;103239.44;;;19.54;44.48
46710;BME280;32442;51.514;-0.178;2023-02-13T05:57:05;103232.00;;;19.60;43.97
46710;BME280;32442;51.514;-0.178;2023-02-13T05:59:32;103235.78;;;19.65;43.85
46710;BME280;32442;51.514;-0.178;2023-02-13T06:01:58;103231.13;;;19.71;43.74
46710;BME280;32442;51.514;-0.178;2023-02-13T06:04:25;103230.13;;;19.77;43.96
46710;BME280;32442;51.514;-0.178;2023-02-13T06:06:52;103236.69;;;19.82;43.69
46710;BME280;32442;51.514;-0.178;2023-02-13T06:09:19;103229.25;;;19.88;43.46
46710;BME280;32442;51.514;-0.178;2023-02-13T06:11:46;103233.03;;;19.93;43.43
46710;BME280;32442;51.514;-0.178;2023-02-13T06:14:13;103234.56;;;20.01;43.91
46710;BME280;32442;51.514;-0.178;2023-02-13T06:16:40;103240.06;;;20.08;43.33
46710;BME280;32442;51.514;-0.178;2023-02-13T06:19:07;103236.22;;;20.14;43.45
46710;BME280;32442;51.514;-0.178;2023-02-13T06:21:34;103231.56;;;20.19;43.39
46710;BME280;32442;51.514;-0.178;2023-02-13T06:24:04;103233.63;;;20.24;43.24
46710;BME280;32442;51.514;-0.178;2023-02-13T06:26:31;103230.72;;;20.30;42.90
46710;BME280;32442;51.514;-0.178;2023-02-13T06:28:58;103237.25;;;20.36;42.93
46710;BME280;32442;51.514;-0.178;2023-02-13T06:31:25;103237.13;;;20.42;43.17
46710;BME280;32442;51.514;-0.178;2023-02-13T06:33:52;103235.50;;;20.47;43.02
46710;BME280;32442;51.514;-0.178;2023-02-13T06:36:19;103219.63;;;20.52;42.79
46710;BME280;32442;51.514;-0.178;2023-02-13T06:38:46;103235.44;;;20.58;42.63
46710;BME280;32442;51.514;-0.178;2023-02-13T06:41:13;103239.19;;;20.64;42.28
46710;BME280;32442;51.514;-0.178;2023-02-13T06:43:40;103236.72;;;20.67;42.21
46710;BME280;32442;51.514;-0.178;2023-02-13T06:46:07;103232.03;;;20.73;42.44
46710;BME280;32442;51.514;-0.178;2023-02-13T06:48:34;103236.31;;;20.75;42.09
46710;BME280;32442;51.514;-0.178;2023-02-13T06:51:01;103239.47;;;20.79;41.83
46710;BME280;32442;51.514;-0.178;2023-02-13T06:53:28;103244.31;;;20.83;41.79
46710;BME280;32442;51.514;-0.178;2023-02-13T06:55:55;103236.47;;;20.85;41.57
46710;BME280;32442;51.514;-0.178;2023-02-13T06:58:23;103241.59;;;20.89;41.45
46710;BME280;32442;51.514;-0.178;2023-02-13T07:00:50;103241.34;;;20.90;41.52
46710;BME280;32442;51.514;-0.178;2023-02-13T07:03:18;103241.94;;;20.92;41.63
46710;BME280;32442;51.514;-0.178;2023-02-13T07:05:45;103247.03;;;20.95;41.09
46710;BME280;32442;51.514;-0.178;2023-02-13T07:08:12;103238.38;;;20.97;41.07
46710;BME280;32442;51.514;-0.178;2023-02-13T07:10:39;103238.13;;;20.98;41.04
46710;BME280;32442;51.514;-0.178;2023-02-13T07:13:06;103243.47;;;21.00;41.00
46710;BME280;32442;51.514;-0.178;2023-02-13T07:15:34;103246.88;;;21.02;40.81
46710;BME280;32442;51.514;-0.178;2023-02-13T07:18:01;103251.41;;;21.03;41.18
46710;BME280;32442;51.514;-0.178;2023-02-13T07:20:28;103249.69;;;21.02;40.88
46710;BME280;32442;51.514;-0.178;2023-02-13T07:25:25;103250.28;;;21.04;40.73
46710;BME280;32442;51.514;-0.178;2023-02-13T07:27:52;103255.88;;;21.04;40.61
46710;BME280;32442;51.514;-0.178;2023-02-13T07:30:20;103253.94;;;21.04;40.82
46710;BME280;32442;51.514;-0.178;2023-02-13T07:32:47;103262.13;;;21.06;40.80
46710;BME280;32442;51.514;-0.178;2023-02-13T07:35:14;103251.97;;;21.05;40.53
46710;BME280;32442;51.514;-0.178;2023-02-13T07:37:41;103258.22;;;21.07;40.82
46710;BME280;32442;51.514;-0.178;2023-02-13T07:40:08;103262.97;;;21.06;40.94
46710;BME280;32442;51.514;-0.178;2023-02-13T07:42:35;103259.41;;;21.11;41.10
46710;BME280;32442;51.514;-0.178;2023-02-13T07:45:02;103263.44;;;21.15;41.26
46710;BME280;32442;51.514;-0.178;2023-02-13T07:47:32;103255.56;;;21.17;41.56
46710;BME280;32442;51.514;-0.178;2023-02-13T07:49:59;103256.50;;;21.22;41.36
46710;BME280;32442;51.514;-0.178;2023-02-13T07:52:26;103257.97;;;21.25;41.64
46710;BME280;32442;51.514;-0.178;2023-02-13T07:54:53;103259.16;;;21.29;41.36
46710;BME280;32442;51.514;-0.178;2023-02-13T07:57:20;103254.63;;;21.28;41.30
46710;BME280;32442;51.514;-0.178;2023-02-13T07:59:47;103246.53;;;21.32;41.31
46710;BME280;32442;51.514;-0.178;2023-02-13T08:02:14;103246.03;;;21.35;40.91
46710;BME280;32442;51.514;-0.178;2023-02-13T08:04:41;103239.03;;;21.37;40.97
46710;BME280;32442;51.514;-0.178;2023-02-13T08:07:13;103250.28;;;21.37;40.87
46710;BME280;32442;51.514;-0.178;2023-02-13T08:09:42;103244.13;;;21.40;40.97
46710;BME280;32442;51.514;-0.178;2023-02-13T08:12:12;103245.59;;;21.43;40.87
46710;BME280;32442;51.514;-0.178;2023-02-13T08:14:39;103239.97;;;21.43;40.73
46710;BME280;32442;51.514;-0.178;2023-02-13T08:17:08;103241.69;;;21.44;40.81
46710;BME280;32442;51.514;-0.178;2023-02-13T08:19:35;103244.22;;;21.45;40.90
46710;BME280;32442;51.514;-0.178;2023-02-13T08:22:02;103235.78;;;21.45;40.57
46710;BME280;32442;51.514;-0.178;2023-02-13T08:24:29;103232.72;;;21.47;40.43
46710;BME280;32442;51.514;-0.178;2023-02-13T08:26:56;103228.78;;;21.48;40.56
46710;BME280;32442;51.514;-0.178;2023-02-13T08:29:22;103233.56;;;21.47;40.75
46710;BME280;32442;51.514;-0.178;2023-02-13T08:31:49;103235.53;;;21.47;40.21
46710;BME280;32442;51.514;-0.178;2023-02-13T08:34:17;103231.31;;;21.49;40.38
46710;BME280;32442;51.514;-0.178;2023-02-13T08:36:44;103229.66;;;21.48;40.13
46710;BME280;32442;51.514;-0.178;2023-02-13T08:39:11;103229.66;;;21.48;40.57
46710;BME280;32442;51.514;-0.178;2023-02-13T08:41:38;103228.50;;;21.49;40.14
46710;BME280;32442;51.514;-0.178;2023-02-13T08:44:05;103231.59;;;21.48;40.15
46710;BME280;32442;51.514;-0.178;2023-02-13T08:46:32;103233.56;;;21.47;40.49
46710;BME280;32442;51.514;-0.178;2023-02-13T08:48:59;103229.66;;;21.48;40.04
46710;BME280;32442;51.514;-0.178;2023-02-13T08:51:26;103235.28;;;21.48;40.17
46710;BME280;32442;51.514;-0.178;2023-02-13T08:53:53;103234.66;;;21.46;40.22
46710;BME280;32442;51.514;-0.178;2023-02-13T08:56:20;103231.84;;;21.46;40.57
46710;BME280;32442;51.514;-0.178;2023-02-13T08:58:47;103236.06;;;21.44;40.57
46710;BME280;32442;51.514;-0.178;2023-02-13T09:01:15;103234.91;;;21.45;40.51
46710;BME280;32442;51.514;-0.178;2023-02-13T09:03:42;103229.22;;;21.40;39.93
46710;BME280;32442;51.514;-0.178;2023-02-13T09:06:09;103223.88;;;21.38;39.89
46710;BME280;32442;51.514;-0.178;2023-02-13T09:08:36;103231.97;;;21.18;38.55
46710;BME280;32442;51.514;-0.178;2023-02-13T09:11:03;103232.38;;;20.76;35.22
46710;BME280;32442;51.514;-0.178;2023-02-13T09:13:33;103224.63;;;20.50;34.26
46710;BME280;32442;51.514;-0.178;2023-02-13T09:16:01;103216.69;;;20.19;34.24
46710;BME280;32442;51.514;-0.178;2023-02-13T09:18:30;103212.38;;;19.99;34.40
46710;BME280;32442;51.514;-0.178;2023-02-13T09:20:58;103209.09;;;19.91;34.27
46710;BME280;32442;51.514;-0.178;2023-02-13T09:23:25;103213.34;;;19.42;34.70
46710;BME280;32442;51.514;-0.178;2023-02-13T09:25:52;103214.06;;;19.37;34.90
46710;BME280;32442;51.514;-0.178;2023-02-13T09:28:20;103213.72;;;19.34;35.22
46710;BME280;32442;51.514;-0.178;2023-02-13T09:30:47;103215.19;;;19.25;34.91
46710;BME280;32442;51.514;-0.178;2023-02-13T09:33:14;103211.28;;;19.14;35.45
46710;BME280;32442;51.514;-0.178;2023-02-13T09:35:41;103210.09;;;18.98;35.65
46710;BME280;32442;51.514;-0.178;2023-02-13T09:38:09;103210.81;;;18.94;35.31
46710;BME280;32442;51.514;-0.178;2023-02-13T09:40:38;103219.69;;;18.79;35.65
46710;BME280;32442;51.514;-0.178;2023-02-13T09:43:09;103208.22;;;18.69;35.91
46710;BME280;32442;51.514;-0.178;2023-02-13T09:45:38;103206.41;;;18.45;36.24
46710;BME280;32442;51.514;-0.178;2023-02-13T09:48:07;103204.31;;;18.29;36.58
46710;BME280;32442;51.514;-0.178;2023-02-13T09:50:36;103198.94;;;18.27;36.72
46710;BME280;32442;51.514;-0.178;2023-02-13T09:53:05;103199.50;;;18.17;36.67
46710;BME280;32442;51.514;-0.178;2023-02-13T09:55:34;103206.44;;;18.15;36.97
46710;BME280;32442;51.514;-0.178;2023-02-13T09:58:08;103195.94;;;17.99;37.59
46710;BME280;32442;51.514;-0.178;2023-02-13T10:00:38;103196.19;;;17.79;37.88
46710;BME280;32442;51.514;-0.178;2023-02-13T10:03:12;103200.84;;;18.15;38.75
46710;BME280;32442;51.514;-0.178;2023-02-13T10:13:16;103202.84;;;18.56;39.05
46710;BME280;32442;51.514;-0.178;2023-02-13T10:15:51;103203.56;;;18.63;39.17
46710;BME280;32442;51.514;-0.178;2023-02-13T10:18:21;103208.22;;;18.69;39.33
46710;BME280;32442;51.514;-0.178;2023-02-13T10:20:51;103207.25;;;18.75;39.46
46710;BME280;32442;51.514;-0.178;2023-02-13T10:23:21;103202.88;;;18.79;39.16
46710;BME280;32442;51.514;-0.178;2023-02-13T10:28:24;103200.56;;;18.88;39.22
46710;BME280;32442;51.514;-0.178;2023-02-13T10:30:53;103201.78;;;18.92;39.59
46710;BME280;32442;51.514;-0.178;2023-02-13T10:33:25;103202.16;;;18.95;39.63
46710;BME280;32442;51.514;-0.178;2023-02-13T10:38:22;103194.22;;;19.04;39.59
46710;BME280;32442;51.514;-0.178;2023-02-13T10:43:19;103200.56;;;19.11;39.72
46710;BME280;32442;51.514;-0.178;2023-02-13T10:50:53;103209.69;;;19.18;39.75
46710;BME280;32442;51.514;-0.178;2023-02-13T11:00:54;103209.59;;;19.25;39.50
46710;BME280;32442;51.514;-0.178;2023-02-13T11:03:25;103206.06;;;19.29;39.55
46710;BME280;32442;51.514;-0.178;2023-02-13T11:05:53;103207.75;;;19.30;39.74
46710;BME280;32442;51.514;-0.178;2023-02-13T11:08:22;103210.91;;;19.34;39.70
46710;BME280;32442;51.514;-0.178;2023-02-13T11:10:50;103207.25;;;19.33;39.88
46710;BME280;32442;51.514;-0.178;2023-02-13T11:13:20;103203.94;;;19.36;39.81
46710;BME280;32442;51.514;-0.178;2023-02-13T11:18:18;103197.88;;;19.39;40.14
46710;BME280;32442;51.514;-0.178;2023-02-13T11:20:47;103203.84;;;19.43;39.65
46710;BME280;32442;51.514;-0.178;2023-02-13T11:28:25;103193.00;;;19.46;40.13
46710;BME280;32442;51.514;-0.178;2023-02-13T11:30:56;103195.81;;;19.46;40.17
46710;BME280;32442;51.514;-0.178;2023-02-13T11:33:34;103188.84;;;19.49;40.10
46710;BME280;32442;51.514;-0.178;2023-02-13T11:36:04;103185.47;;;19.47;39.77
46710;BME280;32442;51.514;-0.178;2023-02-13T11:38:31;103184.72;;;19.51;40.00
46710;BME280;32442;51.514;-0.178;2023-02-13T11:43:29;103177.75;;;19.54;39.71
46710;BME280;32442;51.514;-0.178;2023-02-13T11:48:27;103170.19;;;19.54;39.62
46710;BME280;32442;51.514;-0.178;2023-02-13T11:50:54;103170.81;;;19.57;39.83
46710;BME280;32442;51.514;-0.178;2023-02-13T11:53:22;103162.13;;;19.58;39.97
46710;BME280;32442;51.514;-0.178;2023-02-13T11:58:24;103140.19;;;19.55;40.07
46710;BME280;32442;51.514;-0.178;2023-02-13T12:08:24;103121.66;;;19.66;39.64
46710;BME280;32442;51.514;-0.178;2023-02-13T12:10:51;103130.41;;;19.69;39.67
46710;BME280;32442;51.514;-0.178;2023-02-13T12:13:22;103129.31;;;19.70;39.66
46710;BME280;32442;51.514;-0.178;2023-02-13T12:15:57;103133.31;;;19.74;39.85
46710;BME280;32442;51.514;-0.178;2023-02-13T12:28:27;103122.84;;;19.98;39.43
46710;BME280;32442;51.514;-0.178;2023-02-13T12:33:31;103119.97;;;20.10;39.38
46710;BME280;32442;51.514;-0.178;2023-02-13T13:21:12;103063.63;;;21.21;38.46
46710;BME280;32442;51.514;-0.178;2023-02-13T13:28:41;103048.06;;;21.36;38.30
46710;BME280;32442;51.514;-0.178;2023-02-13T13:31:10;103051.78;;;21.41;38.23
46710;BME280;32442;51.514;-0.178;2023-02-13T13:33:39;103045.31;;;21.41;38.31
46710;BME280;32442;51.514;-0.178;2023-02-13T13:36:10;103056.31;;;21.42;38.36
46710;BME280;32442;51.514;-0.178;2023-02-13T13:41:14;103044.31;;;21.52;38.07
46710;BME280;32442;51.514;-0.178;2023-02-13T13:46:14;103039.88;;;21.56;37.58
46710;BME280;32442;51.514;-0.178;2023-02-13T13:51:15;103043.59;;;21.61;37.76
46710;BME280;32442;51.514;-0.178;2023-02-13T13:56:13;103034.06;;;21.67;37.72
46710;BME280;32442;51.514;-0.178;2023-02-13T14:03:37;103030.47;;;21.72;37.85
46710;BME280;32442;51.514;-0.178;2023-02-13T14:06:06;103029.09;;;21.74;37.48
46710;BME280;32442;51.514;-0.178;2023-02-13T14:11:04;103019.50;;;21.70;38.19
46710;BME280;32442;51.514;-0.178;2023-02-13T14:13:33;103010.50;;;21.73;38.04
46710;BME280;32442;51.514;-0.178;2023-02-13T14:16:01;103002.91;;;21.74;38.31
46710;BME280;32442;51.514;-0.178;2023-02-13T14:18:28;102999.00;;;21.75;38.45
46710;BME280;32442;51.514;-0.178;2023-02-13T14:20:58;103002.97;;;21.79;38.27
46710;BME280;32442;51.514;-0.178;2023-02-13T14:28:26;102996.00;;;21.87;38.21
46710;BME280;32442;51.514;-0.178;2023-02-13T14:31:04;102996.69;;;21.99;38.82
46710;BME280;32442;51.514;-0.178;2023-02-13T14:33:33;102991.06;;;21.99;38.84
46710;BME280;32442;51.514;-0.178;2023-02-13T14:38:30;102991.44;;;22.07;38.89
46710;BME280;32442;51.514;-0.178;2023-02-13T14:40:57;102995.66;;;22.10;38.09
46710;BME280;32442;51.514;-0.178;2023-02-13T14:43:27;102993.44;;;22.12;38.06
46710;BME280;32442;51.514;-0.178;2023-02-13T14:45:56;102987.25;;;22.15;38.15
46710;BME280;32442;51.514;-0.178;2023-02-13T14:48:30;102990.94;;;22.15;38.43
46710;BME280;32442;51.514;-0.178;2023-02-13T14:50:59;102981.09;;;22.18;37.93
46710;BME280;32442;51.514;-0.178;2023-02-13T14:53:29;102983.09;;;22.23;38.18
46710;BME280;32442;51.514;-0.178;2023-02-13T14:55:58;102989.56;;;22.23;38.01
46710;BME280;32442;51.514;-0.178;2023-02-13T14:58:29;102986.50;;;22.25;38.30
46710;BME280;32442;51.514;-0.178;2023-02-13T15:05:56;102989.59;;;22.28;37.71
46710;BME280;32442;51.514;-0.178;2023-02-13T15:08:26;102985.09;;;22.27;37.78
46710;BME280;32442;51.514;-0.178;2023-02-13T15:10:54;102982.28;;;22.27;37.88
46710;BME280;32442;51.514;-0.178;2023-02-13T15:13:23;102982.00;;;22.29;38.15
46710;BME280;32442;51.514;-0.178;2023-02-13T15:15:55;102978.91;;;22.25;38.35
46710;BME280;32442;51.514;-0.178;2023-02-13T15:18:25;102975.78;;;22.27;39.07
46710;BME280;32442;51.514;-0.178;2023-02-13T15:20:54;102977.34;;;22.49;38.30
46710;BME280;32442;51.514;-0.178;2023-02-13T15:23:26;102980.56;;;22.68;38.39
46710;BME280;32442;51.514;-0.178;2023-02-13T15:25:56;102970.19;;;22.74;38.43
46710;BME280;32442;51.514;-0.178;2023-02-13T15:28:23;102979.78;;;22.78;38.30
46710;BME280;32442;51.514;-0.178;2023-02-13T15:30:53;102973.88;;;22.74;38.93
46710;BME280;32442;51.514;-0.178;2023-02-13T15:33:21;102973.88;;;22.74;38.85
46710;BME280;32442;51.514;-0.178;2023-02-13T15:38:22;102968.78;;;22.76;39.90
46710;BME280;32442;51.514;-0.178;2023-02-13T15:40:50;102974.97;;;22.73;39.44
46710;BME280;32442;51.514;-0.178;2023-02-13T15:43:21;102968.16;;;22.69;39.61
46710;BME280;32442;51.514;-0.178;2023-02-13T15:45:49;102969.00;;;22.65;39.82
46710;BME280;32442;51.514;-0.178;2023-02-13T15:48:16;102968.97;;;22.59;40.34
46710;BME280;32442;51.514;-0.178;2023-02-13T15:50:44;102971.19;;;22.52;40.42
46710;BME280;32442;51.514;-0.178;2023-02-13T15:53:13;102963.81;;;22.46;40.57
46710;BME280;32442;51.514;-0.178;2023-02-13T15:55:41;102968.31;;;22.42;40.33
46710;BME280;32442;51.514;-0.178;2023-02-13T15:58:10;102974.50;;;22.39;40.32
46710;BME280;32442;51.514;-0.178;2023-02-13T16:00:39;102975.31;;;22.35;40.41
46710;BME280;32442;51.514;-0.178;2023-02-13T16:03:12;102974.13;;;22.26;40.19
46710;BME280;32442;51.514;-0.178;2023-02-13T16:05:40;102973.25;;;22.25;39.89
46710;BME280;32442;51.514;-0.178;2023-02-13T16:10:37;102966.97;;;22.13;40.07
46710;BME280;32442;51.514;-0.178;2023-02-13T16:13:04;102971.13;;;22.05;39.87
46710;BME280;32442;51.514;-0.178;2023-02-13T16:15:33;102972.84;;;22.06;39.59
46710;BME280;32442;51.514;-0.178;2023-02-13T16:18:01;102979.22;;;21.97;39.60
46710;BME280;32442;51.514;-0.178;2023-02-13T16:20:29;102980.00;;;21.92;39.73
46710;BME280;32442;51.514;-0.178;2023-02-13T16:23:02;102977.44;;;21.91;39.73
46710;BME280;32442;51.514;-0.178;2023-02-13T16:28:00;102966.09;;;21.81;39.42